sensor_id;sensor_type;location;lat;lon;timestamp;pressure;altitude;pressure_sealevel;temperature;humidity
69127;BME280;56688;50.234;19.292;2023-05-14T00:00:47;98949.89;;;5.69;78.93
69127;BME280;56688;50.234;19.292;2023-05-14T00:03:14;98946.91;;;5.70;78.75
69127;BME280;56688;50.234;19.292;2023-05-14T00:05:41;98948.95;;;5.66;78.58
69127;BME280;56688;50.234;19.292;2023-05-14T00:08:08;98950.11;;;5.64;78.32
69127;BME280;56688;50.234;19.292;2023-05-14T00:10:35;98946.87;;;5.61;78.34
69127;BME280;56688;50.234;19.292;2023-05-14T00:13:02;98944.41;;;5.56;78.67
69127;BME280;56688;50.234;19.292;2023-05-14T00:15:28;98940.95;;;5.58;79.11
69127;BME280;56688;50.234;19.292;2023-05-14T00:17:57;98941.63;;;5.64;79.13
69127;BME280;56688;50.234;19.292;2023-05-14T00:20:24;98939.77;;;5.67;78.92
69127;BME280;56688;50.234;19.292;2023-05-14T00:22:51;98937.90;;;5.66;78.21
69127;BME280;56688;50.234;19.292;2023-05-14T00:25:18;98939.25;;;5.59;78.17
69127;BME280;56688;50.234;19.292;2023-05-14T00:27:45;98945.58;;;5.54;78.28
69127;BME280;56688;50.234;19.292;2023-05-14T00:30:12;98946.61;;;5.50;78.20
69127;BME280;56688;50.234;19.292;2023-05-14T00:32:38;98950.26;;;5.47;78.35
69127;BME280;56688;50.234;19.292;2023-05-14T00:35:06;98956.23;;;5.44;78.42
69127;BME280;56688;50.234;19.292;2023-05-14T00:37:32;98955.08;;;5.41;77.95
69127;BME280;56688;50.234;19.292;2023-05-14T00:39:59;98956.03;;;5.39;77.83
69127;BME280;56688;50.234;19.292;2023-05-14T00:42:26;98958.70;;;5.36;77.76
69127;BME280;56688;50.234;19.292;2023-05-14T00:44:53;98949.02;;;5.34;77.52
69127;BME280;56688;50.234;19.292;2023-05-14T00:47:20;98949.08;;;5.32;77.59
69127;BME280;56688;50.234;19.292;2023-05-14T00:49:48;98951.17;;;5.32;77.81
69127;BME280;56688;50.234;19.292;2023-05-14T00:52:15;98951.71;;;5.30;77.81
69127;BME280;56688;50.234;19.292;2023-05-14T00:54:45;98945.14;;;5.28;77.92
69127;BME280;56688;50.234;19.292;2023-05-14T00:57:12;98944.60;;;5.27;77.72
69127;BME280;56688;50.234;19.292;2023-05-14T00:59:39;98948.80;;;5.23;77.87
69127;BME280;56688;50.234;19.292;2023-05-14T01:02:08;98947.58;;;5.21;77.88
69127;BME280;56688;50.234;19.292;2023-05-14T01:04:35;98947.21;;;5.21;78.00
69127;BME280;56688;50.234;19.292;2023-05-14T01:09:48;98952.40;;;5.19;77.39
69127;BME280;56688;50.234;19.292;2023-05-14T01:12:33;98954.67;;;5.13;77.00
69127;BME280;56688;50.234;19.292;2023-05-14T01:17:44;98951.23;;;4.99;76.61
69127;BME280;56688;50.234;19.292;2023-05-14T01:20:12;98953.63;;;4.94;76.85
69127;BME280;56688;50.234;19.292;2023-05-14T01:22:39;98951.07;;;4.92;76.88
69127;BME280;56688;50.234;19.292;2023-05-14T01:25:06;98947.83;;;4.86;76.72
69127;BME280;56688;50.234;19.292;2023-05-14T01:32:50;98946.99;;;4.74;77.05
69127;BME280;56688;50.234;19.292;2023-05-14T01:35:17;98949.52;;;4.70;77.04
69127;BME280;56688;50.234;19.292;2023-05-14T01:37:46;98952.88;;;4.66;77.03
69127;BME280;56688;50.234;19.292;2023-05-14T01:40:14;98949.86;;;4.62;77.21
69127;BME280;56688;50.234;19.292;2023-05-14T01:42:41;98951.08;;;4.61;77.11
69127;BME280;56688;50.234;19.292;2023-05-14T01:45:09;98947.62;;;4.58;77.27
69127;BME280;56688;50.234;19.292;2023-05-14T01:47:36;98945.41;;;4.59;77.31
69127;BME280;56688;50.234;19.292;2023-05-14T01:50:03;98944.50;;;4.53;77.59
69127;BME280;56688;50.234;19.292;2023-05-14T01:52:30;98944.48;;;4.48;78.33
69127;BME280;56688;50.234;19.292;2023-05-14T01:54:57;98944.77;;;4.45;78.82
69127;BME280;56688;50.234;19.292;2023-05-14T01:57:25;98944.18;;;4.43;78.58
69127;BME280;56688;50.234;19.292;2023-05-14T01:59:52;98943.16;;;4.41;78.25
69127;BME280;56688;50.234;19.292;2023-05-14T02:02:19;98936.81;;;4.39;78.43
69127;BME280;56688;50.234;19.292;2023-05-14T02:04:46;98939.83;;;4.39;78.48
69127;BME280;56688;50.234;19.292;2023-05-14T02:07:13;98940.48;;;4.37;78.60
69127;BME280;56688;50.234;19.292;2023-05-14T02:09:40;98939.27;;;4.37;78.65
69127;BME280;56688;50.234;19.292;2023-05-14T02:12:08;98937.55;;;4.35;78.70
69127;BME280;56688;50.234;19.292;2023-05-14T02:14:37;98938.02;;;4.29;79.03
69127;BME280;56688;50.234;19.292;2023-05-14T02:17:03;98939.52;;;4.26;79.03
69127;BME280;56688;50.234;19.292;2023-05-14T02:19:30;98943.77;;;4.25;79.06
69127;BME280;56688;50.234;19.292;2023-05-14T02:21:58;98940.38;;;4.21;79.06
69127;BME280;56688;50.234;19.292;2023-05-14T02:24:26;98940.59;;;4.23;78.90
69127;BME280;56688;50.234;19.292;2023-05-14T02:26:53;98942.13;;;4.23;79.01
69127;BME280;56688;50.234;19.292;2023-05-14T02:29:19;98937.70;;;4.24;79.14
69127;BME280;56688;50.234;19.292;2023-05-14T02:31:46;98937.97;;;4.22;78.83
69127;BME280;56688;50.234;19.292;2023-05-14T02:34:13;98938.60;;;4.19;78.79
69127;BME280;56688;50.234;19.292;2023-05-14T02:36:41;98938.34;;;4.14;78.87
69127;BME280;56688;50.234;19.292;2023-05-14T02:39:08;98938.80;;;4.09;78.48
69127;BME280;56688;50.234;19.292;2023-05-14T02:41:35;98936.98;;;4.04;78.08
69127;BME280;56688;50.234;19.292;2023-05-14T02:44:02;98935.14;;;3.99;77.75
69127;BME280;56688;50.234;19.292;2023-05-14T02:46:33;98932.70;;;3.96;77.65
69127;BME280;56688;50.234;19.292;2023-05-14T02:49:01;98926.14;;;3.93;77.46
69127;BME280;56688;50.234;19.292;2023-05-14T02:51:28;98926.49;;;3.91;77.64
69127;BME280;56688;50.234;19.292;2023-05-14T02:53:55;98929.41;;;3.88;77.94
69127;BME280;56688;50.234;19.292;2023-05-14T02:56:22;98933.98;;;3.82;77.67
69127;BME280;56688;50.234;19.292;2023-05-14T02:58:49;98934.93;;;3.75;77.63
69127;BME280;56688;50.234;19.292;2023-05-14T03:01:15;98928.30;;;3.69;77.60
69127;BME280;56688;50.234;19.292;2023-05-14T03:03:44;98929.02;;;3.64;77.19
69127;BME280;56688;50.234;19.292;2023-05-14T03:06:12;98926.14;;;3.61;77.06
69127;BME280;56688;50.234;19.292;2023-05-14T03:08:38;98916.83;;;3.58;77.54
69127;BME280;56688;50.234;19.292;2023-05-14T03:11:05;98918.19;;;3.61;77.90
69127;BME280;56688;50.234;19.292;2023-05-14T03:13:33;98916.60;;;3.61;77.70
69127;BME280;56688;50.234;19.292;2023-05-14T03:16:00;98914.88;;;3.61;77.75
69127;BME280;56688;50.234;19.292;2023-05-14T03:18:27;98907.86;;;3.58;77.60
69127;BME280;56688;50.234;19.292;2023-05-14T03:20:56;98899.27;;;3.56;77.60
69127;BME280;56688;50.234;19.292;2023-05-14T03:23:23;98899.16;;;3.57;77.93
69127;BME280;56688;50.234;19.292;2023-05-14T03:25:50;98894.54;;;3.61;78.04
69127;BME280;56688;50.234;19.292;2023-05-14T03:28:18;98895.83;;;3.67;77.92
69127;BME280;56688;50.234;19.292;2023-05-14T03:30:44;98891.86;;;3.72;78.09
69127;BME280;56688;50.234;19.292;2023-05-14T03:33:11;98882.70;;;3.76;78.16
69127;BME280;56688;50.234;19.292;2023-05-14T03:35:38;98895.82;;;3.83;78.23
69127;BME280;56688;50.234;19.292;2023-05-14T03:38:05;98899.41;;;3.86;78.07
69127;BME280;56688;50.234;19.292;2023-05-14T03:40:33;98899.74;;;3.88;78.02
69127;BME280;56688;50.234;19.292;2023-05-14T03:43:00;98908.09;;;3.89;78.24
69127;BME280;56688;50.234;19.292;2023-05-14T03:45:26;98903.08;;;3.93;78.05
69127;BME280;56688;50.234;19.292;2023-05-14T03:47:57;98902.07;;;4.00;78.58
69127;BME280;56688;50.234;19.292;2023-05-14T03:50:24;98899.14;;;4.11;79.27
69127;BME280;56688;50.234;19.292;2023-05-14T03:52:51;98890.73;;;4.24;79.74
69127;BME280;56688;50.234;19.292;2023-05-14T03:55:19;98887.19;;;4.42;80.21
69127;BME280;56688;50.234;19.292;2023-05-14T03:57:47;98887.01;;;4.59;80.37
69127;BME280;56688;50.234;19.292;2023-05-14T04:00:14;98891.45;;;4.74;80.34
69127;BME280;56688;50.234;19.292;2023-05-14T04:02:42;98891.46;;;4.91;80.31
69127;BME280;56688;50.234;19.292;2023-05-14T04:05:09;98888.98;;;5.04;80.36
69127;BME280;56688;50.234;19.292;2023-05-14T04:07:36;98884.54;;;5.17;80.28
69127;BME280;56688;50.234;19.292;2023-05-14T04:10:03;98884.09;;;5.33;80.07
69127;BME280;56688;50.234;19.292;2023-05-14T04:12:33;98883.42;;;5.51;80.13
69127;BME280;56688;50.234;19.292;2023-05-14T04:15:01;98884.01;;;5.69;80.41
69127;BME280;56688;50.234;19.292;2023-05-14T04:17:28;98885.05;;;5.90;80.67
69127;BME280;56688;50.234;19.292;2023-05-14T04:19:55;98887.51;;;6.08;80.73
69127;BME280;56688;50.234;19.292;2023-05-14T04:22:23;98888.89;;;6.26;80.95
69127;BME280;56688;50.234;19.292;2023-05-14T04:24:49;98882.90;;;6.42;80.84
69127;BME280;56688;50.234;19.292;2023-05-14T04:27:20;98884.23;;;6.59;80.69
69127;BME280;56688;50.234;19.292;2023-05-14T04:29:48;98887.60;;;6.76;80.72
69127;BME280;56688;50.234;19.292;2023-05-14T04:32:15;98889.21;;;6.93;80.64
69127;BME280;56688;50.234;19.292;2023-05-14T04:34:43;98885.41;;;7.12;80.27
69127;BME280;56688;50.234;19.292;2023-05-14T04:37:10;98887.79;;;7.33;80.20
69127;BME280;56688;50.234;19.292;2023-05-14T04:39:37;98883.98;;;7.55;79.61
69127;BME280;56688;50.234;19.292;2023-05-14T04:42:04;98882.44;;;7.78;79.03
69127;BME280;56688;50.234;19.292;2023-05-14T04:44:33;98882.89;;;8.09;78.33
69127;BME280;56688;50.234;19.292;2023-05-14T04:47:00;98880.19;;;8.36;77.23
69127;BME280;56688;50.234;19.292;2023-05-14T04:49:28;98882.06;;;8.69;75.80
69127;BME280;56688;50.234;19.292;2023-05-14T04:51:54;98880.20;;;9.12;75.08
69127;BME280;56688;50.234;19.292;2023-05-14T04:54:21;98884.50;;;9.58;73.33
69127;BME280;56688;50.234;19.292;2023-05-14T04:56:49;98879.01;;;10.07;71.84
69127;BME280;56688;50.234;19.292;2023-05-14T04:59:15;98875.45;;;10.61;70.33
69127;BME280;56688;50.234;19.292;2023-05-14T05:01:42;98870.58;;;11.18;68.12
69127;BME280;56688;50.234;19.292;2023-05-14T05:04:09;98866.73;;;11.70;66.09
69127;BME280;56688;50.234;19.292;2023-05-14T05:06:36;98862.36;;;12.12;64.51
69127;BME280;56688;50.234;19.292;2023-05-14T05:09:03;98869.52;;;12.46;63.09
69127;BME280;56688;50.234;19.292;2023-05-14T05:11:30;98863.77;;;12.70;62.00
69127;BME280;56688;50.234;19.292;2023-05-14T05:13:57;98867.14;;;12.93;61.56
69127;BME280;56688;50.234;19.292;2023-05-14T05:16:23;98867.58;;;13.18;60.23
69127;BME280;56688;50.234;19.292;2023-05-14T05:18:51;98865.13;;;13.39;59.75
69127;BME280;56688;50.234;19.292;2023-05-14T05:21:18;98867.31;;;13.66;59.24
69127;BME280;56688;50.234;19.292;2023-05-14T05:23:44;98858.90;;;13.92;58.21
69127;BME280;56688;50.234;19.292;2023-05-14T05:26:11;98851.88;;;14.15;57.47
69127;BME280;56688;50.234;19.292;2023-05-14T05:28:38;98846.42;;;14.33;56.94
69127;BME280;56688;50.234;19.292;2023-05-14T05:31:05;98849.53;;;14.52;56.36
69127;BME280;56688;50.234;19.292;2023-05-14T05:33:33;98844.46;;;14.72;55.93
69127;BME280;56688;50.234;19.292;2023-05-14T05:36:00;98840.74;;;14.92;55.06
69127;BME280;56688;50.234;19.292;2023-05-14T05:38:26;98841.61;;;15.08;54.59
69127;BME280;56688;50.234;19.292;2023-05-14T05:40:53;98840.46;;;15.26;54.45
69127;BME280;56688;50.234;19.292;2023-05-14T05:43:20;98841.20;;;15.44;53.56
69127;BME280;56688;50.234;19.292;2023-05-14T05:45:47;98834.79;;;15.65;53.39
69127;BME280;56688;50.234;19.292;2023-05-14T05:48:13;98831.27;;;16.02;53.23
69127;BME280;56688;50.234;19.292;2023-05-14T05:50:40;98831.05;;;16.51;51.61
69127;BME280;56688;50.234;19.292;2023-05-14T05:53:08;98833.33;;;17.06;49.55
69127;BME280;56688;50.234;19.292;2023-05-14T05:55:35;98833.83;;;17.63;48.67
69127;BME280;56688;50.234;19.292;2023-05-14T05:58:02;98835.11;;;18.27;47.63
69127;BME280;56688;50.234;19.292;2023-05-14T06:00:28;98839.45;;;18.75;45.57
69127;BME280;56688;50.234;19.292;2023-05-14T06:02:56;98842.71;;;19.12;44.54
69127;BME280;56688;50.234;19.292;2023-05-14T06:05:23;98841.73;;;19.55;43.95
69127;BME280;56688;50.234;19.292;2023-05-14T06:07:50;98837.48;;;19.97;43.89
69127;BME280;56688;50.234;19.292;2023-05-14T06:10:19;98836.33;;;20.33;42.64
69127;BME280;56688;50.234;19.292;2023-05-14T06:12:46;98835.48;;;20.67;42.14
69127;BME280;56688;50.234;19.292;2023-05-14T06:15:13;98829.20;;;20.94;40.67
69127;BME280;56688;50.234;19.292;2023-05-14T06:17:40;98828.80;;;21.14;39.84
69127;BME280;56688;50.234;19.292;2023-05-14T06:20:07;98821.45;;;21.48;38.99
69127;BME280;56688;50.234;19.292;2023-05-14T06:22:34;98815.39;;;21.93;37.44
69127;BME280;56688;50.234;19.292;2023-05-14T06:25:01;98808.23;;;22.23;38.20
69127;BME280;56688;50.234;19.292;2023-05-14T06:27:28;98810.19;;;22.62;36.79
69127;BME280;56688;50.234;19.292;2023-05-14T06:29:56;98806.34;;;22.90;36.34
69127;BME280;56688;50.234;19.292;2023-05-14T06:32:23;98812.02;;;23.21;35.70
69127;BME280;56688;50.234;19.292;2023-05-14T06:34:50;98819.17;;;23.30;33.93
69127;BME280;56688;50.234;19.292;2023-05-14T06:37:17;98815.63;;;23.13;34.38
69127;BME280;56688;50.234;19.292;2023-05-14T06:39:44;98813.02;;;22.94;34.47
69127;BME280;56688;50.234;19.292;2023-05-14T06:42:23;98813.11;;;22.89;34.72
69127;BME280;56688;50.234;19.292;2023-05-14T06:44:50;98807.73;;;22.99;34.31
69127;BME280;56688;50.234;19.292;2023-05-14T06:47:17;98804.05;;;23.09;34.64
69127;BME280;56688;50.234;19.292;2023-05-14T06:49:44;98804.66;;;23.01;34.74
69127;BME280;56688;50.234;19.292;2023-05-14T06:52:11;98802.52;;;23.02;35.25
69127;BME280;56688;50.234;19.292;2023-05-14T06:54:37;98799.48;;;23.22;33.94
69127;BME280;56688;50.234;19.292;2023-05-14T06:57:05;98805.52;;;23.38;33.19
69127;BME280;56688;50.234;19.292;2023-05-14T06:59:32;98804.48;;;23.34;33.24
69127;BME280;56688;50.234;19.292;2023-05-14T07:01:58;98805.66;;;23.40;32.95
69127;BME280;56688;50.234;19.292;2023-05-14T07:04:25;98796.41;;;23.45;32.41
69127;BME280;56688;50.234;19.292;2023-05-14T07:06:52;98796.33;;;23.60;32.97
69127;BME280;56688;50.234;19.292;2023-05-14T07:09:19;98794.49;;;23.73;32.88
69127;BME280;56688;50.234;19.292;2023-05-14T07:11:46;98795.73;;;23.81;33.23
69127;BME280;56688;50.234;19.292;2023-05-14T07:14:13;98797.80;;;23.96;33.30
69127;BME280;56688;50.234;19.292;2023-05-14T07:16:40;98793.58;;;24.10;32.98
69127;BME280;56688;50.234;19.292;2023-05-14T07:19:08;98794.02;;;24.31;32.60
69127;BME280;56688;50.234;19.292;2023-05-14T07:21:35;98792.77;;;24.49;31.82
69127;BME280;56688;50.234;19.292;2023-05-14T07:24:01;98795.45;;;24.36;32.05
69127;BME280;56688;50.234;19.292;2023-05-14T07:26:28;98800.63;;;24.67;32.31
69127;BME280;56688;50.234;19.292;2023-05-14T07:28:56;98804.56;;;24.86;32.18
69127;BME280;56688;50.234;19.292;2023-05-14T07:31:22;98809.56;;;24.43;31.67
69127;BME280;56688;50.234;19.292;2023-05-14T07:33:49;98817.38;;;24.28;32.39
69127;BME280;56688;50.234;19.292;2023-05-14T07:36:17;98821.50;;;24.15;33.35
69127;BME280;56688;50.234;19.292;2023-05-14T07:38:44;98823.50;;;24.09;32.98
69127;BME280;56688;50.234;19.292;2023-05-14T07:41:11;98823.58;;;24.02;32.17
69127;BME280;56688;50.234;19.292;2023-05-14T07:43:38;98827.39;;;24.16;33.02
69127;BME280;56688;50.234;19.292;2023-05-14T07:46:06;98824.27;;;24.30;32.30
69127;BME280;56688;50.234;19.292;2023-05-14T07:48:34;98817.14;;;24.32;32.64
69127;BME280;56688;50.234;19.292;2023-05-14T07:51:01;98809.74;;;24.46;32.94
69127;BME280;56688;50.234;19.292;2023-05-14T07:53:28;98804.84;;;24.77;31.72
69127;BME280;56688;50.234;19.292;2023-05-14T07:55:55;98800.69;;;24.79;32.31
69127;BME280;56688;50.234;19.292;2023-05-14T07:58:21;98796.64;;;24.78;30.48
69127;BME280;56688;50.234;19.292;2023-05-14T08:00:49;98784.84;;;24.73;30.32
69127;BME280;56688;50.234;19.292;2023-05-14T08:03:16;98777.73;;;24.57;30.11
69127;BME280;56688;50.234;19.292;2023-05-14T08:05:43;98774.17;;;24.69;31.70
69127;BME280;56688;50.234;19.292;2023-05-14T08:08:10;98777.77;;;25.34;31.58
69127;BME280;56688;50.234;19.292;2023-05-14T08:10:38;98770.65;;;25.74;30.44
69127;BME280;56688;50.234;19.292;2023-05-14T08:13:04;98771.10;;;25.84;29.59
69127;BME280;56688;50.234;19.292;2023-05-14T08:15:31;98764.33;;;26.02;29.62
69127;BME280;56688;50.234;19.292;2023-05-14T08:17:58;98760.25;;;26.24;29.57
69127;BME280;56688;50.234;19.292;2023-05-14T08:20:29;98760.98;;;26.55;29.70
69127;BME280;56688;50.234;19.292;2023-05-14T08:22:56;98762.50;;;27.02;28.72
69127;BME280;56688;50.234;19.292;2023-05-14T08:25:23;98755.52;;;27.32;27.71
69127;BME280;56688;50.234;19.292;2023-05-14T08:27:50;98753.79;;;27.48;27.30
69127;BME280;56688;50.234;19.292;2023-05-14T08:30:19;98744.30;;;27.19;26.56
69127;BME280;56688;50.234;19.292;2023-05-14T08:32:47;98738.34;;;27.41;27.92
69127;BME280;56688;50.234;19.292;2023-05-14T08:35:14;98736.65;;;27.93;27.01
69127;BME280;56688;50.234;19.292;2023-05-14T08:37:41;98723.92;;;28.36;26.59
69127;BME280;56688;50.234;19.292;2023-05-14T08:40:08;98725.65;;;28.46;25.53
69127;BME280;56688;50.234;19.292;2023-05-14T08:42:37;98722.80;;;28.65;26.05
69127;BME280;56688;50.234;19.292;2023-05-14T08:45:12;98723.33;;;29.13;25.14
69127;BME280;56688;50.234;19.292;2023-05-14T08:47:41;98719.31;;;29.41;25.80
69127;BME280;56688;50.234;19.292;2023-05-14T08:50:10;98721.45;;;29.90;26.06
69127;BME280;56688;50.234;19.292;2023-05-14T08:52:38;98719.73;;;30.24;24.66
69127;BME280;56688;50.234;19.292;2023-05-14T08:55:05;98722.77;;;30.29;24.64
69127;BME280;56688;50.234;19.292;2023-05-14T08:57:33;98718.86;;;30.37;24.17
69127;BME280;56688;50.234;19.292;2023-05-14T09:00:02;98717.42;;;30.22;24.18
69127;BME280;56688;50.234;19.292;2023-05-14T09:02:34;98712.41;;;30.07;24.74
69127;BME280;56688;50.234;19.292;2023-05-14T09:05:02;98708.61;;;29.82;24.93
69127;BME280;56688;50.234;19.292;2023-05-14T09:07:29;98700.55;;;29.76;24.60
69127;BME280;56688;50.234;19.292;2023-05-14T09:09:56;98702.21;;;29.90;24.33
69127;BME280;56688;50.234;19.292;2023-05-14T09:12:24;98696.70;;;30.14;23.87
69127;BME280;56688;50.234;19.292;2023-05-14T09:14:51;98701.38;;;30.03;23.51
69127;BME280;56688;50.234;19.292;2023-05-14T09:17:18;98702.30;;;29.82;23.38
69127;BME280;56688;50.234;19.292;2023-05-14T09:19:45;98698.45;;;29.44;23.83
69127;BME280;56688;50.234;19.292;2023-05-14T09:22:16;98697.96;;;29.02;25.07
69127;BME280;56688;50.234;19.292;2023-05-14T09:24:43;98696.02;;;28.65;25.36
69127;BME280;56688;50.234;19.292;2023-05-14T09:27:17;98697.70;;;28.51;24.71
69127;BME280;56688;50.234;19.292;2023-05-14T09:29:46;98697.11;;;28.30;24.93
69127;BME280;56688;50.234;19.292;2023-05-14T09:32:13;98696.64;;;28.23;25.38
69127;BME280;56688;50.234;19.292;2023-05-14T09:34:40;98692.92;;;28.26;26.12
69127;BME280;56688;50.234;19.292;2023-05-14T09:37:08;98693.63;;;28.38;25.88
69127;BME280;56688;50.234;19.292;2023-05-14T09:39:36;98684.57;;;28.30;24.33
69127;BME280;56688;50.234;19.292;2023-05-14T09:42:04;98694.84;;;27.73;26.33
69127;BME280;56688;50.234;19.292;2023-05-14T09:44:31;98691.22;;;27.35;27.10
69127;BME280;56688;50.234;19.292;2023-05-14T09:46:58;98694.55;;;27.01;26.91
69127;BME280;56688;50.234;19.292;2023-05-14T09:49:25;98690.63;;;26.66;28.37
69127;BME280;56688;50.234;19.292;2023-05-14T09:51:52;98690.98;;;26.52;28.55
69127;BME280;56688;50.234;19.292;2023-05-14T09:54:19;98681.77;;;26.44;27.96
69127;BME280;56688;50.234;19.292;2023-05-14T09:56:45;98674.55;;;26.28;27.69
69127;BME280;56688;50.234;19.292;2023-05-14T09:59:13;98674.89;;;26.20;28.01
69127;BME280;56688;50.234;19.292;2023-05-14T10:01:41;98670.88;;;26.28;27.26
69127;BME280;56688;50.234;19.292;2023-05-14T10:04:10;98662.06;;;26.33;28.17
69127;BME280;56688;50.234;19.292;2023-05-14T10:06:38;98659.91;;;26.37;28.54
69127;BME280;56688;50.234;19.292;2023-05-14T10:09:11;98661.92;;;26.39;26.88
69127;BME280;56688;50.234;19.292;2023-05-14T10:11:41;98655.29;;;26.19;26.63
69127;BME280;56688;50.234;19.292;2023-05-14T10:14:13;98652.68;;;26.02;27.05
69127;BME280;56688;50.234;19.292;2023-05-14T10:16:47;98646.46;;;25.84;27.34
69127;BME280;56688;50.234;19.292;2023-05-14T10:19:16;98638.94;;;25.66;28.79
69127;BME280;56688;50.234;19.292;2023-05-14T10:21:47;98634.27;;;25.60;27.35
69127;BME280;56688;50.234;19.292;2023-05-14T10:24:16;98633.01;;;25.51;28.26
69127;BME280;56688;50.234;19.292;2023-05-14T10:26:44;98627.44;;;25.39;28.09
69127;BME280;56688;50.234;19.292;2023-05-14T10:29:11;98628.95;;;25.32;27.25
69127;BME280;56688;50.234;19.292;2023-05-14T10:37:13;98621.23;;;24.73;29.36
69127;BME280;56688;50.234;19.292;2023-05-14T10:39:42;98621.66;;;24.51;30.06
69127;BME280;56688;50.234;19.292;2023-05-14T10:42:13;98620.84;;;24.26;30.64
69127;BME280;56688;50.234;19.292;2023-05-14T10:44:47;98620.73;;;24.16;29.43
69127;BME280;56688;50.234;19.292;2023-05-14T10:47:15;98610.59;;;24.09;30.92
69127;BME280;56688;50.234;19.292;2023-05-14T10:49:44;98608.56;;;24.01;30.88
69127;BME280;56688;50.234;19.292;2023-05-14T10:52:11;98607.85;;;23.97;30.63
69127;BME280;56688;50.234;19.292;2023-05-14T10:54:38;98599.34;;;23.87;31.04
69127;BME280;56688;50.234;19.292;2023-05-14T10:57:10;98598.02;;;23.75;31.79
69127;BME280;56688;50.234;19.292;2023-05-14T10:59:40;98598.18;;;23.70;31.19
69127;BME280;56688;50.234;19.292;2023-05-14T11:07:50;98585.58;;;23.66;31.85
69127;BME280;56688;50.234;19.292;2023-05-14T11:10:19;98584.88;;;23.77;31.63
69127;BME280;56688;50.234;19.292;2023-05-14T11:12:49;98585.59;;;23.92;31.94
69127;BME280;56688;50.234;19.292;2023-05-14T11:15:19;98586.41;;;23.97;31.25
69127;BME280;56688;50.234;19.292;2023-05-14T11:17:47;98586.41;;;23.95;32.11
69127;BME280;56688;50.234;19.292;2023-05-14T11:20:16;98584.05;;;24.04;32.26
69127;BME280;56688;50.234;19.292;2023-05-14T11:22:44;98576.73;;;24.24;31.87
69127;BME280;56688;50.234;19.292;2023-05-14T11:25:12;98571.48;;;24.30;32.23
69127;BME280;56688;50.234;19.292;2023-05-14T11:27:42;98567.98;;;24.46;31.99
69127;BME280;56688;50.234;19.292;2023-05-14T11:30:18;98569.16;;;24.50;30.72
69127;BME280;56688;50.234;19.292;2023-05-14T11:32:46;98566.58;;;24.36;30.85
69127;BME280;56688;50.234;19.292;2023-05-14T11:35:14;98568.80;;;24.40;31.11
69127;BME280;56688;50.234;19.292;2023-05-14T11:37:42;98566.29;;;24.42;30.48
69127;BME280;56688;50.234;19.292;2023-05-14T11:40:14;98563.50;;;24.37;30.08
69127;BME280;56688;50.234;19.292;2023-05-14T11:42:42;98570.66;;;24.39;29.87
69127;BME280;56688;50.234;19.292;2023-05-14T11:45:11;98572.42;;;24.33;29.63
69127;BME280;56688;50.234;19.292;2023-05-14T11:47:40;98568.63;;;24.44;30.53
69127;BME280;56688;50.234;19.292;2023-05-14T11:50:07;98571.05;;;24.79;30.28
69127;BME280;56688;50.234;19.292;2023-05-14T11:52:38;98568.42;;;25.18;30.52
69127;BME280;56688;50.234;19.292;2023-05-14T11:55:10;98567.39;;;25.54;29.42
69127;BME280;56688;50.234;19.292;2023-05-14T11:57:37;98560.81;;;25.81;28.98
69127;BME280;56688;50.234;19.292;2023-05-14T12:00:07;98553.27;;;26.10;28.63
69127;BME280;56688;50.234;19.292;2023-05-14T12:02:35;98548.23;;;26.44;28.66
69127;BME280;56688;50.234;19.292;2023-05-14T12:05:04;98544.59;;;26.67;28.01
69127;BME280;56688;50.234;19.292;2023-05-14T12:07:32;98540.45;;;26.70;29.00
69127;BME280;56688;50.234;19.292;2023-05-14T12:10:01;98531.77;;;26.72;28.32
69127;BME280;56688;50.234;19.292;2023-05-14T12:12:34;98530.44;;;26.64;29.33
69127;BME280;56688;50.234;19.292;2023-05-14T12:15:01;98529.71;;;26.59;29.10
69127;BME280;56688;50.234;19.292;2023-05-14T12:17:36;98522.85;;;26.66;28.57
69127;BME280;56688;50.234;19.292;2023-05-14T12:20:04;98519.04;;;26.77;28.98
69127;BME280;56688;50.234;19.292;2023-05-14T12:22:33;98513.34;;;26.77;27.97
69127;BME280;56688;50.234;19.292;2023-05-14T12:25:02;98514.71;;;26.63;27.86
69127;BME280;56688;50.234;19.292;2023-05-14T12:27:29;98507.63;;;26.51;28.17
69127;BME280;56688;50.234;19.292;2023-05-14T12:30:00;98501.38;;;26.42;28.55
69127;BME280;56688;50.234;19.292;2023-05-14T12:32:46;98498.57;;;26.44;28.91
69127;BME280;56688;50.234;19.292;2023-05-14T12:35:14;98492.38;;;26.52;28.90
69127;BME280;56688;50.234;19.292;2023-05-14T12:37:41;98486.19;;;26.60;29.34
69127;BME280;56688;50.234;19.292;2023-05-14T12:40:08;98478.65;;;26.80;29.47
69127;BME280;56688;50.234;19.292;2023-05-14T12:42:35;98482.41;;;26.90;27.74
69127;BME280;56688;50.234;19.292;2023-05-14T12:45:03;98475.71;;;26.86;28.11
69127;BME280;56688;50.234;19.292;2023-05-14T12:47:47;98470.71;;;26.99;28.84
69127;BME280;56688;50.234;19.292;2023-05-14T12:50:14;98470.61;;;27.08;28.77
69127;BME280;56688;50.234;19.292;2023-05-14T12:52:42;98465.02;;;27.11;29.23
69127;BME280;56688;50.234;19.292;2023-05-14T12:55:08;98462.15;;;27.23;29.29
69127;BME280;56688;50.234;19.292;2023-05-14T12:57:36;98453.66;;;27.54;29.10
69127;BME280;56688;50.234;19.292;2023-05-14T13:00:06;98463.06;;;27.97;29.22
69127;BME280;56688;50.234;19.292;2023-05-14T13:02:34;98459.15;;;28.07;27.58
69127;BME280;56688;50.234;19.292;2023-05-14T13:05:11;98455.38;;;28.03;27.02
69127;BME280;56688;50.234;19.292;2023-05-14T13:07:38;98448.70;;;27.81;27.81
69127;BME280;56688;50.234;19.292;2023-05-14T13:10:05;98448.55;;;27.50;27.56
69127;BME280;56688;50.234;19.292;2023-05-14T13:12:32;98443.45;;;27.16;28.43
69127;BME280;56688;50.234;19.292;2023-05-14T13:14:59;98441.21;;;27.04;29.35
69127;BME280;56688;50.234;19.292;2023-05-14T13:17:26;98437.98;;;26.87;29.20